Time;durP1;ratioP1;P1;durP2;ratioP2;P2;SDS_P1;SDS_P2;PMS_P1;PMS_P2;Temp;Humidity;BMP_temperature;BMP_pressure;BME280_temperature;BME280_humidity;BME280_pressure;Samples;Min_cycle;Max_cycle;Signal;HPM_P1;HPM_P2
2024/02/22 00:01:11;;;;;;;0.10;0.10;;;;;;;11.50;73.79;98119.66;7364593;19;20015;-66
2024/02/22 00:03:37;;;;;;;0.10;0.10;;;;;;;11.44;74.54;98102.59;7361639;19;20010;-65
2024/02/22 00:06:04;;;;;;;0.10;0.10;;;;;;;11.40;73.80;98093.28;7361159;19;20013;-66
2024/02/22 00:08:30;;;;;;;0.10;0.10;;;;;;;11.29;73.93;98080.13;7361947;19;20014;-65
2024/02/22 00:10:57;;;;;;;0.10;0.10;;;;;;;11.22;75.06;98105.00;7362594;19;20011;-65
2024/02/22 00:13:24;;;;;;;0.10;0.10;;;;;;;11.12;74.79;98094.34;7355760;19;20018;-65
2024/02/22 00:15:49;;;;;;;0.10;0.10;;;;;;;11.01;75.00;98082.00;7366312;19;20014;-65
2024/02/22 00:18:15;;;;;;;0.15;0.15;;;;;;;10.93;75.70;98079.03;7343566;19;20006;-66
2024/02/22 00:20:40;;;;;;;0.10;0.10;;;;;;;10.85;74.91;98099.59;7364315;19;20021;-66
2024/02/22 00:23:06;;;;;;;0.10;0.10;;;;;;;10.79;76.09;98099.97;7362632;19;20675;-65
2024/02/22 00:25:32;;;;;;;0.10;0.10;;;;;;;10.73;75.67;98093.38;7353686;19;20027;-66
2024/02/22 00:27:58;;;;;;;0.10;0.10;;;;;;;10.68;75.34;98105.91;7360803;19;20007;-67
2024/02/22 00:30:24;;;;;;;0.10;0.10;;;;;;;10.61;76.40;98104.63;7363045;19;20070;-65
2024/02/22 00:32:50;;;;;;;0.10;0.10;;;;;;;10.57;76.54;98079.66;7359819;19;20026;-65
2024/02/22 00:35:16;;;;;;;0.10;0.10;;;;;;;10.53;76.24;98065.97;7354763;19;20011;-66
2024/02/22 00:37:41;;;;;;;0.10;0.10;;;;;;;10.51;76.64;98073.06;7364026;19;20030;-66
2024/02/22 00:40:09;;;;;;;0.10;0.10;;;;;;;10.34;76.27;98028.94;7360001;19;20002;-66
2024/02/22 00:42:34;;;;;;;;;;;;;;;10.45;75.43;98036.94;7359878;19;20035;-66
2024/02/22 00:44:59;;;;;;;0.10;0.10;;;;;;;10.39;76.18;98032.09;7358796;19;19915;-65
2024/02/22 00:47:25;;;;;;;0.10;0.10;;;;;;;10.34;76.72;97998.53;7365718;19;20035;-66
2024/02/22 00:49:51;;;;;;;0.10;0.10;;;;;;;10.21;77.11;98015.84;7371177;19;20415;-65
2024/02/22 00:52:16;;;;;;;0.10;0.10;;;;;;;10.18;76.90;98017.81;7352042;19;20017;-65
2024/02/22 00:54:43;;;;;;;0.08;0.08;;;;;;;10.18;77.67;98043.88;7371290;19;20006;-66
2024/02/22 00:57:08;;;;;;;0.10;0.10;;;;;;;10.14;77.95;98064.97;7371228;19;20091;-66
2024/02/22 00:59:34;;;;;;;0.10;0.10;;;;;;;10.10;78.75;98073.91;7364166;19;20018;-65
2024/02/22 01:02:00;;;;;;;0.10;0.10;;;;;;;10.08;78.49;98069.69;7365458;19;20011;-66
2024/02/22 01:04:26;;;;;;;0.00;0.00;;;;;;;10.06;78.96;98067.19;7367621;19;20411;-66
2024/02/22 01:06:54;;;;;;;0.10;0.10;;;;;;;10.05;79.03;98070.75;7371481;19;20017;-66
2024/02/22 01:09:20;;;;;;;0.10;0.10;;;;;;;10.02;79.24;98055.28;7359319;19;20037;-66
2024/02/22 01:11:46;;;;;;;0.10;0.10;;;;;;;10.04;78.93;98055.22;7369504;19;20006;-66
2024/02/22 01:14:12;;;;;;;0.10;0.10;;;;;;;10.04;79.45;98053.44;7363060;19;20477;-66
2024/02/22 01:16:37;;;;;;;0.10;0.10;;;;;;;10.05;79.04;98049.06;7369634;19;20457;-67
2024/02/22 01:19:03;;;;;;;0.10;0.10;;;;;;;10.06;78.62;98025.47;7370496;19;20010;-65
2024/02/22 01:21:30;;;;;;;0.10;0.10;;;;;;;10.04;79.47;98021.31;7368546;19;20957;-66
2024/02/22 01:23:55;;;;;;;0.10;0.10;;;;;;;10.04;78.57;98001.28;7364489;19;20010;-65
2024/02/22 01:26:21;;;;;;;0.10;0.10;;;;;;;10.02;78.75;97997.94;7363245;19;20038;-66
2024/02/22 01:28:48;;;;;;;0.10;0.10;;;;;;;10.01;79.16;98006.69;7363036;19;20069;-65
2024/02/22 01:31:13;;;;;;;0.10;0.10;;;;;;;9.99;78.66;98013.78;7366076;19;20049;-65
2024/02/22 01:33:39;;;;;;;0.10;0.10;;;;;;;9.99;79.31;98023.38;7364060;19;22130;-65
2024/02/22 01:36:04;;;;;;;0.10;0.10;;;;;;;9.97;79.28;98035.66;7368499;19;20014;-66
2024/02/22 01:38:30;;;;;;;0.10;0.10;;;;;;;9.96;79.21;98050.47;7370503;19;20022;-65
2024/02/22 01:40:55;;;;;;;0.10;0.10;;;;;;;9.96;78.30;98066.09;7367675;19;20089;-65
2024/02/22 01:43:21;;;;;;;0.10;0.10;;;;;;;9.79;77.26;98032.44;7358897;19;20066;-66
2024/02/22 01:45:46;;;;;;;0.10;0.10;;;;;;;9.83;76.61;98054.75;7364175;19;20003;-65
2024/02/22 01:48:13;;;;;;;0.10;0.10;;;;;;;9.71;76.60;98039.88;7370110;19;20029;-66
2024/02/22 01:50:40;;;;;;;0.10;0.10;;;;;;;9.58;76.35;98035.44;7365942;19;20013;-65
2024/02/22 01:53:06;;;;;;;0.10;0.10;;;;;;;9.43;76.71;98038.97;7364446;19;20805;-66
2024/02/22 01:55:32;;;;;;;0.05;0.05;;;;;;;9.30;76.77;98041.47;7366665;19;20009;-65
2024/02/22 01:57:57;;;;;;;0.10;0.10;;;;;;;9.04;76.92;98014.38;7362034;19;20056;-65
2024/02/22 02:00:23;;;;;;;0.10;0.10;;;;;;;9.14;76.83;98050.28;7367025;19;20007;-65
2024/02/22 02:02:49;;;;;;;0.00;0.00;;;;;;;9.03;76.75;98033.53;7360957;19;20019;-66
2024/02/22 02:05:16;;;;;;;0.10;0.10;;;;;;;8.94;77.25;98044.50;7359651;19;20503;-66
2024/02/22 02:07:42;;;;;;;0.10;0.10;;;;;;;8.86;76.98;98041.47;7366536;19;20010;-69
2024/02/22 02:10:11;;;;;;;0.10;0.10;;;;;;;8.76;77.99;98041.19;7363898;19;20029;-65
2024/02/22 02:12:40;;;;;;;0.10;0.10;;;;;;;8.69;77.77;98023.44;7360703;19;20019;-65
2024/02/22 02:15:06;;;;;;;0.00;0.00;;;;;;;8.62;78.58;98022.09;7367097;19;20462;-65
2024/02/22 02:17:32;;;;;;;0.00;0.00;;;;;;;8.57;78.70;98027.56;7362811;19;20014;-65
2024/02/22 02:19:57;;;;;;;0.10;0.10;;;;;;;8.52;78.80;98012.22;7366589;19;20302;-65
2024/02/22 02:22:47;;;;;;;0.10;0.10;;;;;;;8.48;78.13;98000.31;7368478;19;20010;-65
2024/02/22 02:25:13;;;;;;;0.00;0.00;;;;;;;8.41;78.42;97972.16;7362368;19;20018;-66
2024/02/22 02:27:38;;;;;;;0.10;0.10;;;;;;;8.39;78.92;97916.81;7366979;19;20397;-65
2024/02/22 02:30:05;;;;;;;0.10;0.10;;;;;;;8.37;79.41;97888.28;7363866;19;20030;-66
2024/02/22 02:32:30;;;;;;;0.10;0.10;;;;;;;8.35;79.34;97843.31;7360602;19;20022;-65
2024/02/22 02:34:56;;;;;;;0.08;0.08;;;;;;;8.33;79.78;97850.38;7366702;19;20738;-66
2024/02/22 02:37:21;;;;;;;0.10;0.10;;;;;;;8.30;80.73;97824.53;7364627;19;20006;-65
2024/02/22 02:39:47;;;;;;;0.00;0.00;;;;;;;8.31;81.02;97782.00;7366819;19;20017;-66
2024/02/22 02:42:13;;;;;;;0.03;0.03;;;;;;;8.31;81.06;97732.59;7361305;19;20146;-65
2024/02/22 02:44:38;;;;;;;0.10;0.10;;;;;;;8.30;81.14;97705.78;7362512;19;20118;-65
2024/02/22 02:47:06;;;;;;;0.10;0.10;;;;;;;8.18;81.13;97632.94;7368376;19;20074;-66
2024/02/22 02:49:32;;;;;;;0.08;0.08;;;;;;;8.29;81.27;97667.72;7366415;19;20013;-66
2024/02/22 02:51:58;;;;;;;0.03;0.03;;;;;;;8.27;81.08;97757.97;7366341;19;20010;-66
2024/02/22 02:54:23;;;;;;;0.00;0.00;;;;;;;8.26;81.03;97791.84;7366969;19;20003;-66
2024/02/22 02:56:48;;;;;;;0.10;0.10;;;;;;;8.24;80.71;97820.53;7366150;19;20018;-65
2024/02/22 02:59:16;;;;;;;0.00;0.00;;;;;;;8.23;81.00;97838.84;7361103;19;20006;-66
2024/02/22 03:01:48;;;;;;;;;;;;;;;8.23;79.34;97825.84;7368858;19;20020;-66
2024/02/22 03:04:14;;;;;;;0.00;0.00;;;;;;;8.12;80.66;97815.25;7362520;19;20028;-65
2024/02/22 03:06:40;;;;;;;0.10;0.10;;;;;;;8.18;80.22;97812.28;7362089;19;20015;-66
2024/02/22 03:09:05;;;;;;;0.10;0.10;;;;;;;8.02;80.59;97774.19;7360321;19;20457;-66
2024/02/22 03:11:31;;;;;;;0.10;0.10;;;;;;;7.96;80.51;97753.78;7365988;19;20021;-66
2024/02/22 03:13:56;;;;;;;0.10;0.10;;;;;;;8.07;80.20;97761.78;7362613;19;20010;-66
2024/02/22 03:16:24;;;;;;;0.08;0.08;;;;;;;8.10;79.63;97749.50;7365698;19;20445;-66
2024/02/22 03:18:51;;;;;;;0.00;0.00;;;;;;;8.06;79.98;97734.13;7365153;19;20014;-67
2024/02/22 03:21:21;;;;;;;0.10;0.10;;;;;;;8.05;80.09;97729.00;7363949;19;20603;-68
2024/02/22 03:23:47;;;;;;;0.10;0.10;;;;;;;8.03;79.75;97721.28;7364021;19;20450;-67
2024/02/22 03:26:13;;;;;;;0.10;0.10;;;;;;;8.01;80.21;97715.38;7361393;19;20039;-67
2024/02/22 03:28:38;;;;;;;0.10;0.10;;;;;;;8.01;80.11;97717.97;7364489;19;20512;-67
2024/02/22 03:31:04;;;;;;;0.10;0.10;;;;;;;7.99;80.52;97704.22;7364434;19;20021;-66
2024/02/22 03:33:29;;;;;;;0.10;0.10;;;;;;;7.99;80.07;97701.63;7363111;19;20026;-67
2024/02/22 03:35:57;;;;;;;0.00;0.00;;;;;;;7.97;80.13;97698.28;7366321;19;20802;-67
2024/02/22 03:38:22;;;;;;;;;;;;;;;8.00;78.77;97698.09;7365952;19;20469;-66
2024/02/22 03:40:48;;;;;;;0.05;0.05;;;;;;;7.97;79.36;97711.28;7356911;19;19911;-67
2024/02/22 03:43:14;;;;;;;0.00;0.00;;;;;;;7.97;79.44;97703.47;7364006;19;20014;-66
2024/02/22 03:45:40;;;;;;;0.00;0.00;;;;;;;7.94;79.01;97698.47;7353678;19;20037;-67
2024/02/22 03:48:06;;;;;;;0.10;0.10;;;;;;;7.87;79.46;97671.19;7365930;19;20018;-67
2024/02/22 03:50:31;;;;;;;0.10;0.10;;;;;;;7.88;79.46;97657.25;7365176;19;20635;-66
2024/02/22 03:52:57;;;;;;;0.00;0.00;;;;;;;7.66;79.68;97610.97;7363237;19;20003;-67
2024/02/22 03:55:22;;;;;;;0.00;0.00;;;;;;;7.91;79.97;97656.25;7366093;19;20011;-67
2024/02/22 03:57:47;;;;;;;0.10;0.10;;;;;;;7.90;80.32;97680.53;7361681;19;20013;-66
2024/02/22 04:00:15;;;;;;;0.10;0.10;;;;;;;7.89;80.78;97684.91;7361873;19;20022;-67
2024/02/22 04:02:43;;;;;;;0.03;0.03;;;;;;;7.89;80.65;97689.28;7362225;19;20045;-67
2024/02/22 04:05:09;;;;;;;0.10;0.10;;;;;;;7.89;80.60;97700.50;7362786;19;20011;-67
2024/02/22 04:07:35;;;;;;;0.08;0.08;;;;;;;7.91;80.27;97716.84;7360629;19;20462;-67
2024/02/22 04:10:01;;;;;;;0.10;0.10;;;;;;;7.80;80.32;97695.84;7361160;19;20015;-68
2024/02/22 04:12:27;;;;;;;0.00;0.00;;;;;;;7.92;80.37;97710.72;7370136;19;20709;-67
2024/02/22 04:14:52;;;;;;;0.00;0.00;;;;;;;7.91;79.97;97714.25;7364129;19;20011;-67
2024/02/22 04:17:18;;;;;;;0.10;0.10;;;;;;;7.92;80.05;97715.06;7335564;19;20011;-67
2024/02/22 04:19:43;;;;;;;0.00;0.00;;;;;;;7.90;80.00;97722.94;7363192;19;20018;-69
2024/02/22 04:22:09;;;;;;;0.10;0.10;;;;;;;7.91;79.91;97735.03;7369229;19;20074;-67
2024/02/22 04:24:34;;;;;;;0.10;0.10;;;;;;;7.90;80.35;97733.34;7369864;19;20037;-67
2024/02/22 04:27:00;;;;;;;0.10;0.10;;;;;;;7.90;80.43;97733.34;7363209;19;20757;-68
2024/02/22 04:29:25;;;;;;;0.10;0.10;;;;;;;7.90;80.10;97722.94;7373218;19;20091;-67
2024/02/22 04:31:50;;;;;;;0.10;0.10;;;;;;;7.90;79.80;97722.94;7362322;19;20355;-68
2024/02/22 04:34:16;;;;;;;0.10;0.10;;;;;;;7.73;79.86;97694.53;7369939;19;20025;-67
2024/02/22 04:36:42;;;;;;;0.08;0.08;;;;;;;7.87;80.17;97717.94;7371912;19;20349;-68
2024/02/22 04:39:09;;;;;;;0.10;0.10;;;;;;;7.89;80.43;97726.47;7368392;19;19998;-68
2024/02/22 04:41:38;;;;;;;0.10;0.10;;;;;;;7.87;80.62;97717.94;7371205;19;20018;-68
2024/02/22 04:44:04;;;;;;;0.10;0.10;;;;;;;7.87;80.71;97717.94;7370454;19;20022;-67
2024/02/22 04:46:30;;;;;;;0.10;0.10;;;;;;;7.83;80.85;97718.22;7364878;19;23622;-68
2024/02/22 04:49:01;;;;;;;0.10;0.10;;;;;;;7.87;80.35;97702.38;7370680;19;20033;-68
2024/02/22 04:51:28;;;;;;;0.10;0.10;;;;;;;7.87;79.91;97686.78;7368988;19;20382;-68
2024/02/22 04:53:54;;;;;;;0.10;0.10;;;;;;;7.86;80.91;97674.72;7368772;19;20547;-69
2024/02/22 04:56:20;;;;;;;0.10;0.10;;;;;;;7.88;80.40;97667.66;7363864;19;19998;-69
2024/02/22 04:58:45;;;;;;;0.10;0.10;;;;;;;7.88;80.46;97669.41;7371281;19;20041;-68
2024/02/22 05:01:10;;;;;;;0.10;0.10;;;;;;;7.87;80.48;97660.78;7361983;19;20374;-69
2024/02/22 05:03:36;;;;;;;0.10;0.10;;;;;;;7.87;80.72;97654.75;7365650;19;20014;-68
2024/02/22 05:06:01;;;;;;;0.00;0.00;;;;;;;7.87;80.33;97633.97;7371897;19;20007;-67
2024/02/22 05:08:26;;;;;;;0.10;0.10;;;;;;;7.82;80.66;97629.06;7370059;19;20031;-69
2024/02/22 05:10:52;;;;;;;0.10;0.10;;;;;;;7.73;80.80;97624.41;7370778;19;20592;-69
2024/02/22 05:13:19;;;;;;;0.00;0.00;;;;;;;7.83;80.94;97645.47;7366838;19;20002;-68
2024/02/22 05:15:45;;;;;;;0.10;0.10;;;;;;;7.82;80.67;97652.44;7370583;19;20011;-67
2024/02/22 05:18:11;;;;;;;0.08;0.08;;;;;;;7.82;80.76;97660.25;7365482;19;21095;-68
2024/02/22 05:20:37;;;;;;;0.00;0.00;;;;;;;7.80;80.49;97654.28;7351091;19;20010;-68
2024/02/22 05:23:04;;;;;;;0.10;0.10;;;;;;;7.78;80.75;97640.56;7369252;19;20018;-69
2024/02/22 05:25:29;;;;;;;0.00;0.00;;;;;;;7.70;80.58;97637.56;7370349;19;20014;-70
2024/02/22 05:27:55;;;;;;;0.10;0.10;;;;;;;7.75;80.23;97651.13;7365342;19;19999;-69
2024/02/22 05:30:20;;;;;;;0.10;0.10;;;;;;;7.66;80.57;97642.16;7371169;19;20010;-69
2024/02/22 05:32:46;;;;;;;0.10;0.10;;;;;;;7.73;80.33;97656.41;7334028;19;20022;-69
2024/02/22 05:35:11;;;;;;;0.10;0.10;;;;;;;7.71;80.41;97647.91;7367793;19;20002;-69
2024/02/22 05:37:37;;;;;;;0.08;0.08;;;;;;;7.69;80.13;97641.09;7369469;19;20010;-68
2024/02/22 05:40:05;;;;;;;0.10;0.10;;;;;;;7.68;79.98;97623.88;7369662;19;20107;-69
2024/02/22 05:42:31;;;;;;;0.10;0.10;;;;;;;7.66;80.07;97626.56;7366656;19;20013;-70
2024/02/22 05:44:57;;;;;;;0.10;0.10;;;;;;;7.64;80.45;97627.56;7368143;19;20661;-68
2024/02/22 05:47:23;;;;;;;0.10;0.10;;;;;;;7.63;80.49;97631.09;7363359;19;20082;-69
2024/02/22 05:49:48;;;;;;;0.10;0.10;;;;;;;7.62;80.42;97634.63;7366400;19;20014;-68
2024/02/22 05:52:14;;;;;;;0.10;0.10;;;;;;;7.61;80.05;97633.78;7364579;19;20024;-68
2024/02/22 05:54:41;;;;;;;0.10;0.10;;;;;;;7.61;80.17;97627.75;7368565;19;20363;-70
2024/02/22 05:57:07;;;;;;;0.10;0.10;;;;;;;7.60;80.34;97615.69;7366480;19;20010;-70
2024/02/22 05:59:32;;;;;;;0.00;0.00;;;;;;;7.58;80.61;97623.56;7357977;19;20013;-69
2024/02/22 06:01:58;;;;;;;0.10;0.10;;;;;;;7.57;80.27;97618.47;7368848;19;20014;-70
2024/02/22 06:04:23;;;;;;;0.03;0.03;;;;;;;7.54;80.34;97606.50;7361269;19;20028;-70
2024/02/22 06:06:49;;;;;;;0.10;0.10;;;;;;;7.57;80.65;97600.31;7364957;19;20580;-69
2024/02/22 06:09:15;;;;;;;0.10;0.10;;;;;;;7.49;80.59;97609.38;7362807;19;20018;-70
2024/02/22 06:11:40;;;;;;;0.10;0.10;;;;;;;7.51;80.28;97638.69;7368664;19;20658;-70
2024/02/22 06:14:06;;;;;;;0.08;0.08;;;;;;;7.53;80.22;97634.22;7367904;19;20019;-68
2024/02/22 06:16:31;;;;;;;0.08;0.08;;;;;;;7.51;80.29;97617.91;7368911;19;20010;-69
2024/02/22 06:18:57;;;;;;;0.10;0.10;;;;;;;7.45;80.22;97601.84;7364975;19;20098;-70
2024/02/22 06:21:22;;;;;;;0.08;0.08;;;;;;;7.51;80.35;97602.34;7367168;19;20010;-69
2024/02/22 06:23:48;;;;;;;0.10;0.10;;;;;;;7.50;80.10;97585.09;7364751;19;20018;-70
2024/02/22 06:26:14;;;;;;;0.10;0.10;;;;;;;7.49;80.22;97552.25;7364999;19;20010;-68
2024/02/22 06:28:39;;;;;;;0.10;0.10;;;;;;;7.48;80.20;97514.25;7365231;19;20459;-70
2024/02/22 06:31:05;;;;;;;0.10;0.10;;;;;;;7.47;80.41;97517.78;7363717;19;20032;-69
2024/02/22 06:33:32;;;;;;;0.10;0.10;;;;;;;7.44;80.45;97517.94;7361612;19;20010;-68
2024/02/22 06:35:58;;;;;;;0.10;0.10;;;;;;;7.45;80.80;97513.59;7366154;19;20019;-69
2024/02/22 06:38:23;;;;;;;0.10;0.10;;;;;;;7.44;80.53;97504.97;7363769;19;20013;-70
2024/02/22 06:40:50;;;;;;;0.10;0.10;;;;;;;7.43;81.06;97499.88;7367627;19;20047;-70
2024/02/22 06:43:16;;;;;;;0.10;0.10;;;;;;;7.42;81.21;97511.19;7366670;19;20010;-69
2024/02/22 06:45:42;;;;;;;0.10;0.10;;;;;;;7.40;81.13;97519.09;7358866;19;20424;-69
2024/02/22 06:48:08;;;;;;;0.10;0.10;;;;;;;7.39;81.25;97511.38;7359730;19;20010;-69
2024/02/22 06:50:34;;;;;;;0.10;0.10;;;;;;;7.31;81.02;97501.47;7362826;19;20133;-69
2024/02/22 06:53:03;;;;;;;0.10;0.10;;;;;;;7.40;80.89;97506.09;7367342;19;20470;-69
2024/02/22 06:55:29;;;;;;;0.10;0.10;;;;;;;7.36;81.18;97503.78;7365119;19;20011;-70
2024/02/22 06:57:54;;;;;;;0.00;0.00;;;;;;;7.39;81.15;97501.00;7359046;19;20006;-69
2024/02/22 07:00:20;;;;;;;0.10;0.10;;;;;;;7.37;80.76;97498.50;7367247;19;20022;-68
2024/02/22 07:02:46;;;;;;;0.10;0.10;;;;;;;7.34;80.81;97498.66;7365061;19;20741;-69
2024/02/22 07:05:12;;;;;;;0.10;0.10;;;;;;;7.16;80.64;97476.44;7364472;19;20014;-69
2024/02/22 07:07:39;;;;;;;0.08;0.08;;;;;;;7.32;80.54;97510.91;7364108;19;20030;-69
2024/02/22 07:10:05;;;;;;;0.10;0.10;;;;;;;7.29;80.43;97521.47;7363621;19;20018;-70
2024/02/22 07:12:32;;;;;;;0.10;0.10;;;;;;;7.25;80.78;97527.78;7365329;19;20010;-68
2024/02/22 07:14:57;;;;;;;0.00;0.00;;;;;;;7.24;80.44;97536.50;7365617;19;20505;-69
2024/02/22 07:17:23;;;;;;;0.10;0.10;;;;;;;7.22;80.29;97533.16;7363213;19;20021;-68
2024/02/22 07:19:49;;;;;;;0.00;0.00;;;;;;;7.18;80.43;97526.47;7362177;19;20015;-70
2024/02/22 07:22:14;;;;;;;0.00;0.00;;;;;;;7.06;80.16;97506.47;7362389;19;20043;-69
2024/02/22 07:24:40;;;;;;;0.13;0.13;;;;;;;7.15;80.12;97534.47;7357749;19;20867;-68
2024/02/22 07:27:07;;;;;;;0.10;0.10;;;;;;;7.13;80.56;97538.91;7361517;19;20002;-69
2024/02/22 07:29:33;;;;;;;0.10;0.10;;;;;;;7.09;80.19;97532.22;7357939;19;20094;-71
2024/02/22 07:31:58;;;;;;;0.10;0.10;;;;;;;7.08;80.46;97525.34;7349811;19;20038;-69
2024/02/22 07:34:23;;;;;;;0.10;0.10;;;;;;;7.05;80.27;97521.19;7352825;19;20006;-69
2024/02/22 07:36:50;;;;;;;0.10;0.10;;;;;;;7.00;80.41;97534.44;7351881;19;20456;-68
2024/02/22 07:39:15;;;;;;;0.10;0.10;;;;;;;7.00;80.50;97539.63;7352915;19;20006;-68
2024/02/22 07:41:44;;;;;;;0.00;0.00;;;;;;;6.99;80.30;97545.75;7352330;19;20046;-69
2024/02/22 07:44:12;;;;;;;0.00;0.00;;;;;;;6.93;80.30;97551.28;7356038;19;20010;-68
2024/02/22 07:46:41;;;;;;;0.03;0.03;;;;;;;6.94;79.67;97560.72;7360533;19;20022;-70
2024/02/22 07:49:06;;;;;;;0.10;0.10;;;;;;;6.92;79.73;97562.56;7363414;19;20014;-69
2024/02/22 07:51:32;;;;;;;0.10;0.10;;;;;;;6.83;79.46;97542.34;7364647;19;20025;-69
2024/02/22 07:54:00;;;;;;;0.10;0.10;;;;;;;6.88;79.58;97550.69;7364536;19;20438;-69
2024/02/22 07:56:25;;;;;;;;;;;;;;;6.87;79.21;97543.84;7363081;19;20524;-68
2024/02/22 07:58:53;;;;;;;0.00;0.00;;;;;;;6.85;79.74;97550.91;7359836;19;19943;-68
2024/02/22 08:01:19;;;;;;;0.10;0.10;;;;;;;6.81;80.09;97554.59;7365451;19;20030;-69
2024/02/22 08:03:45;;;;;;;0.00;0.00;;;;;;;6.79;79.85;97545.22;7360206;19;20011;-69
2024/02/22 08:06:12;;;;;;;0.10;0.10;;;;;;;6.77;80.15;97542.72;7359713;19;20481;-69
2024/02/22 08:08:38;;;;;;;0.10;0.10;;;;;;;6.76;79.93;97541.06;7360778;19;20007;-69
2024/02/22 08:11:06;;;;;;;0.10;0.10;;;;;;;6.68;80.23;97522.50;7360531;19;20033;-68
2024/02/22 08:13:31;;;;;;;0.00;0.00;;;;;;;6.73;79.87;97525.66;7362473;19;20006;-69
2024/02/22 08:16:08;;;;;;;0.10;0.10;;;;;;;6.74;80.14;97519.53;7359992;19;20018;-70
2024/02/22 08:18:34;;;;;;;0.10;0.10;;;;;;;6.72;80.55;97518.81;7363793;19;20034;-69
2024/02/22 08:21:00;;;;;;;0.00;0.00;;;;;;;6.72;80.25;97522.22;7360406;19;20251;-70
2024/02/22 08:23:25;;;;;;;0.10;0.10;;;;;;;6.69;80.45;97518.97;7362866;19;20018;-69
2024/02/22 08:25:51;;;;;;;0.00;0.00;;;;;;;6.46;79.56;97482.25;7358603;19;20496;-69
2024/02/22 08:28:16;;;;;;;0.10;0.10;;;;;;;6.72;79.95;97521.41;7359265;19;20886;-69
2024/02/22 08:30:42;;;;;;;0.10;0.10;;;;;;;6.73;79.96;97520.47;7360712;19;20014;-68
2024/02/22 08:33:07;;;;;;;0.00;0.00;;;;;;;6.74;80.55;97516.94;7337121;19;20121;-68
2024/02/22 08:35:32;;;;;;;0.00;0.00;;;;;;;6.76;80.63;97528.09;7354299;19;20081;-69
2024/02/22 08:37:58;;;;;;;0.10;0.10;;;;;;;6.78;80.65;97533.19;7364453;19;20022;-68
2024/02/22 08:40:24;;;;;;;0.10;0.10;;;;;;;6.79;80.64;97535.66;7361523;19;20006;-68
2024/02/22 08:42:49;;;;;;;0.10;0.10;;;;;;;6.80;80.53;97520.97;7361587;19;20070;-68
2024/02/22 08:45:16;;;;;;;0.10;0.10;;;;;;;6.81;80.33;97523.47;7363104;19;20048;-69
2024/02/22 08:47:42;;;;;;;0.00;0.00;;;;;;;6.83;80.64;97537.16;7355707;19;20482;-68
2024/02/22 08:50:09;;;;;;;0.10;0.10;;;;;;;6.84;80.48;97533.66;7356550;19;20017;-69
2024/02/22 08:52:36;;;;;;;0.10;0.10;;;;;;;6.85;80.42;97532.75;7364623;19;20494;-71
2024/02/22 08:55:03;;;;;;;0.10;0.10;;;;;;;6.87;80.52;97541.25;7362943;19;20014;-68
2024/02/22 08:57:28;;;;;;;0.10;0.10;;;;;;;6.89;80.76;97536.81;7356873;19;20010;-69
2024/02/22 08:59:54;;;;;;;0.03;0.03;;;;;;;6.93;81.04;97540.91;7348927;19;20516;-68
2024/02/22 09:02:19;;;;;;;0.10;0.10;;;;;;;6.96;80.86;97537.31;7363703;19;20003;-68
2024/02/22 09:04:45;;;;;;;0.10;0.10;;;;;;;7.00;81.07;97544.81;7357370;19;19998;-69
2024/02/22 09:07:10;;;;;;;0.00;0.00;;;;;;;7.03;80.66;97544.63;7363899;19;20015;-68
2024/02/22 09:09:35;;;;;;;0.00;0.00;;;;;;;7.07;80.79;97544.44;7363140;19;20025;-69
2024/02/22 09:12:02;;;;;;;0.10;0.10;;;;;;;7.10;81.06;97550.31;7371329;19;20047;-68
2024/02/22 09:14:27;;;;;;;0.10;0.10;;;;;;;7.00;81.00;97528.41;7365918;19;20772;-69
2024/02/22 09:16:55;;;;;;;0.03;0.03;;;;;;;7.14;80.97;97535.38;7366057;19;20006;-68
2024/02/22 09:19:20;;;;;;;0.00;0.00;;;;;;;7.11;81.08;97520.00;7370329;19;20002;-68
2024/02/22 09:21:46;;;;;;;0.08;0.08;;;;;;;7.18;80.85;97527.31;7361570;19;20701;-68
2024/02/22 09:24:12;;;;;;;0.05;0.05;;;;;;;7.20;80.59;97519.47;7369210;19;20041;-68
2024/02/22 09:26:37;;;;;;;0.10;0.10;;;;;;;7.23;81.16;97519.25;7369843;19;20015;-68
2024/02/22 09:29:03;;;;;;;0.10;0.10;;;;;;;7.28;81.13;97525.00;7363815;19;20014;-71
2024/02/22 09:31:28;;;;;;;0.10;0.10;;;;;;;7.31;81.14;97522.22;7363696;19;20077;-68
2024/02/22 09:33:55;;;;;;;0.10;0.10;;;;;;;7.36;80.77;97519.38;7368467;19;20007;-68
2024/02/22 09:36:21;;;;;;;0.13;0.13;;;;;;;7.40;81.15;97516.50;7362519;19;20020;-68
2024/02/22 09:38:47;;;;;;;0.10;0.10;;;;;;;7.42;80.83;97514.63;7366101;19;20524;-68
2024/02/22 09:41:13;;;;;;;0.10;0.10;;;;;;;7.49;81.06;97515.06;7371710;19;20568;-69
2024/02/22 09:43:40;;;;;;;0.10;0.10;;;;;;;7.52;80.68;97515.72;7364922;19;20039;-68
2024/02/22 09:46:07;;;;;;;0.10;0.10;;;;;;;7.46;80.83;97500.53;7366124;19;20662;-68
2024/02/22 09:48:32;;;;;;;0.00;0.00;;;;;;;7.62;81.10;97515.16;7367035;19;20285;-68
2024/02/22 09:50:59;;;;;;;0.10;0.10;;;;;;;7.65;80.86;97515.78;7367818;19;20030;-68
2024/02/22 09:53:27;;;;;;;0.10;0.10;;;;;;;7.49;80.93;97487.34;7368220;19;20405;-68
2024/02/22 09:55:52;;;;;;;0.05;0.05;;;;;;;7.70;80.71;97518.09;7366729;19;20418;-69
2024/02/22 09:58:21;;;;;;;0.05;0.05;;;;;;;7.68;80.93;97515.63;7366026;19;20010;-69
2024/02/22 10:00:47;;;;;;;0.10;0.10;;;;;;;7.70;80.43;97510.31;7368426;19;20023;-68
2024/02/22 10:03:12;;;;;;;0.10;0.10;;;;;;;7.66;80.60;97511.47;7363774;19;20007;-68
2024/02/22 10:05:38;;;;;;;0.10;0.10;;;;;;;7.74;80.95;97510.03;7366957;19;20515;-68
2024/02/22 10:08:11;;;;;;;0.10;0.10;;;;;;;7.72;80.88;97498.09;7357108;19;20057;-68
2024/02/22 10:10:37;;;;;;;0.10;0.10;;;;;;;7.76;80.71;97512.56;7365475;19;20504;-67
2024/02/22 10:13:03;;;;;;;0.00;0.00;;;;;;;7.66;80.79;97495.88;7364248;19;20078;-68
2024/02/22 10:15:30;;;;;;;0.10;0.10;;;;;;;7.80;80.59;97519.22;7368902;19;20002;-67
2024/02/22 10:17:55;;;;;;;0.10;0.10;;;;;;;7.82;80.97;97522.56;7364201;19;20010;-67
2024/02/22 10:20:30;;;;;;;0.10;0.10;;;;;;;7.83;80.92;97524.22;7364999;19;20046;-67
2024/02/22 10:23:07;;;;;;;0.10;0.10;;;;;;;7.90;80.53;97530.69;7367541;19;20722;-67
2024/02/22 10:25:32;;;;;;;0.10;0.10;;;;;;;7.90;80.71;97535.06;7363041;19;20010;-67
2024/02/22 10:27:58;;;;;;;0.00;0.00;;;;;;;7.92;80.51;97534.03;7362919;19;20514;-67
2024/02/22 10:30:26;;;;;;;0.10;0.10;;;;;;;7.95;80.45;97528.63;7365159;19;20014;-67
2024/02/22 10:32:55;;;;;;;0.10;0.10;;;;;;;7.98;80.73;97527.63;7362680;19;20012;-67
2024/02/22 10:35:23;;;;;;;0.10;0.10;;;;;;;7.97;80.87;97521.59;7363423;19;20021;-67
2024/02/22 10:37:55;;;;;;;0.10;0.10;;;;;;;8.02;80.88;97522.13;7367276;19;20011;-67
2024/02/22 10:40:20;;;;;;;0.10;0.10;;;;;;;8.03;80.72;97525.56;7362935;19;20041;-68
2024/02/22 10:42:52;;;;;;;0.10;0.10;;;;;;;8.09;80.94;97532.16;7366059;19;20036;-68
2024/02/22 10:45:18;;;;;;;0.10;0.10;;;;;;;8.09;80.98;97534.75;7366777;19;20101;-67
2024/02/22 10:47:44;;;;;;;0.10;0.10;;;;;;;7.91;80.78;97506.41;7365622;19;20104;-68
2024/02/22 10:50:14;;;;;;;0.10;0.10;;;;;;;8.17;80.86;97548.09;7365978;19;20812;-68
2024/02/22 10:52:40;;;;;;;0.10;0.10;;;;;;;8.16;80.57;97521.28;7367263;19;20023;-68
2024/02/22 10:55:10;;;;;;;0.10;0.10;;;;;;;8.24;80.75;97538.97;7366315;19;20036;-67
2024/02/22 10:57:36;;;;;;;0.10;0.10;;;;;;;8.21;80.70;97527.00;7363995;19;20907;-67
2024/02/22 11:00:04;;;;;;;0.00;0.00;;;;;;;8.28;80.69;97535.25;7363553;19;20018;-67
2024/02/22 11:02:30;;;;;;;;;;;;;;;8.35;81.04;97539.09;7363991;19;20014;-67
2024/02/22 11:05:02;;;;;;;0.10;0.10;;;;;;;8.33;80.82;97533.19;7365426;19;20591;-67
2024/02/22 11:07:28;;;;;;;0.10;0.10;;;;;;;8.37;80.79;97544.25;7363196;19;20045;-67
2024/02/22 11:09:54;;;;;;;0.10;0.10;;;;;;;8.26;80.74;97531.88;7366092;19;20010;-67
2024/02/22 11:12:20;;;;;;;0.10;0.10;;;;;;;8.41;80.55;97551.75;7364341;19;20010;-67
2024/02/22 11:14:45;;;;;;;0.10;0.10;;;;;;;8.42;80.48;97556.03;7366490;19;20014;-67
2024/02/22 11:17:17;;;;;;;0.10;0.10;;;;;;;8.47;80.77;97559.16;7359738;19;20649;-67
2024/02/22 11:19:51;;;;;;;0.10;0.10;;;;;;;8.47;80.46;97559.16;7364337;19;20026;-67
2024/02/22 11:22:17;;;;;;;0.10;0.10;;;;;;;8.51;80.36;97558.00;7357463;19;20013;-67
2024/02/22 11:24:43;;;;;;;0.10;0.10;;;;;;;8.54;80.28;97570.00;7361980;19;20006;-67
2024/02/22 11:27:18;;;;;;;0.10;0.10;;;;;;;8.60;80.42;97571.38;7359254;19;20014;-67
2024/02/22 11:29:44;;;;;;;0.10;0.10;;;;;;;8.58;80.35;97568.88;7359854;19;20482;-67
2024/02/22 11:32:11;;;;;;;0.10;0.10;;;;;;;8.61;80.20;97562.63;7349006;19;20028;-67
2024/02/22 11:34:38;;;;;;;0.10;0.10;;;;;;;8.59;80.24;97565.34;7360712;19;20021;-67
2024/02/22 11:37:18;;;;;;;0.10;0.10;;;;;;;8.64;80.53;97565.88;7356344;19;20018;-66